sensor_id;sensor_type;location;lat;lon;timestamp;pressure;altitude;pressure_sealevel;temperature;humidity
2397;BME280;1209;48.410;9.054;2023-03-03T00:01:15;96360.66;;;2.00;100.00
2397;BME280;1209;48.410;9.054;2023-03-03T00:03:41;96360.19;;;2.06;100.00
2397;BME280;1209;48.410;9.054;2023-03-03T00:06:09;96353.16;;;2.08;100.00
2397;BME280;1209;48.410;9.054;2023-03-03T00:08:35;96358.19;;;2.09;100.00
2397;BME280;1209;48.410;9.054;2023-03-03T00:11:01;96349.66;;;2.09;100.00
2397;BME280;1209;48.410;9.054;2023-03-03T00:13:29;96356.88;;;2.15;100.00
2397;BME280;1209;48.410;9.054;2023-03-03T00:16:11;96362.50;;;2.20;100.00
2397;BME280;1209;48.410;9.054;2023-03-03T00:18:41;96359.22;;;2.18;100.00
2397;BME280;1209;48.410;9.054;2023-03-03T00:21:22;96352.31;;;2.18;100.00
2397;BME280;1209;48.410;9.054;2023-03-03T00:23:49;96361.69;;;2.19;100.00
2397;BME280;1209;48.410;9.054;2023-03-03T00:26:30;96363.75;;;2.26;100.00
2397;BME280;1209;48.410;9.054;2023-03-03T00:28:58;96360.50;;;2.24;100.00
2397;BME280;1209;48.410;9.054;2023-03-03T00:31:32;96361.75;;;2.29;100.00
2397;BME280;1209;48.410;9.054;2023-03-03T00:36:48;96372.81;;;2.09;100.00
2397;BME280;1209;48.410;9.054;2023-03-03T00:39:26;96371.41;;;2.16;100.00
2397;BME280;1209;48.410;9.054;2023-03-03T00:41:53;96370.34;;;2.18;100.00
2397;BME280;1209;48.410;9.054;2023-03-03T00:47:30;96371.25;;;2.29;100.00
2397;BME280;1209;48.410;9.054;2023-03-03T00:50:27;96368.78;;;2.27;100.00
2397;BME280;1209;48.410;9.054;2023-03-03T00:52:59;96372.44;;;2.25;100.00
2397;BME280;1209;48.410;9.054;2023-03-03T00:55:25;96372.22;;;2.16;100.00
2397;BME280;1209;48.410;9.054;2023-03-03T00:57:51;96380.31;;;2.12;100.00
2397;BME280;1209;48.410;9.054;2023-03-03T01:00:17;96371.97;;;2.19;100.00
2397;BME280;1209;48.410;9.054;2023-03-03T01:02:42;96374.31;;;2.22;100.00
2397;BME280;1209;48.410;9.054;2023-03-03T01:05:12;96375.81;;;2.25;100.00
2397;BME280;1209;48.410;9.054;2023-03-03T01:07:37;96374.06;;;2.26;100.00
2397;BME280;1209;48.410;9.054;2023-03-03T01:10:03;96380.84;;;2.27;100.00
2397;BME280;1209;48.410;9.054;2023-03-03T01:12:28;96373.94;;;2.27;100.00
2397;BME280;1209;48.410;9.054;2023-03-03T01:14:53;96371.59;;;2.35;100.00
2397;BME280;1209;48.410;9.054;2023-03-03T01:17:19;96371.69;;;2.34;100.00
2397;BME280;1209;48.410;9.054;2023-03-03T01:19:44;96370.06;;;2.33;100.00
2397;BME280;1209;48.410;9.054;2023-03-03T01:22:10;96362.09;;;2.36;100.00
2397;BME280;1209;48.410;9.054;2023-03-03T01:24:35;96358.94;;;2.32;100.00
2397;BME280;1209;48.410;9.054;2023-03-03T01:27:00;96362.81;;;2.27;100.00
2397;BME280;1209;48.410;9.054;2023-03-03T01:29:26;96351.94;;;2.23;100.00
2397;BME280;1209;48.410;9.054;2023-03-03T01:31:51;96355.34;;;2.24;100.00
2397;BME280;1209;48.410;9.054;2023-03-03T01:34:16;96356.41;;;2.21;100.00
2397;BME280;1209;48.410;9.054;2023-03-03T01:36:42;96351.03;;;2.13;100.00
2397;BME280;1209;48.410;9.054;2023-03-03T01:39:07;96347.28;;;2.17;100.00
2397;BME280;1209;48.410;9.054;2023-03-03T01:41:34;96347.72;;;2.22;100.00
2397;BME280;1209;48.410;9.054;2023-03-03T01:43:59;96357.81;;;2.14;100.00
2397;BME280;1209;48.410;9.054;2023-03-03T01:49:25;96354.69;;;2.10;100.00
2397;BME280;1209;48.410;9.054;2023-03-03T01:54:50;96355.72;;;2.19;100.00
2397;BME280;1209;48.410;9.054;2023-03-03T01:57:22;96352.69;;;2.14;100.00
2397;BME280;1209;48.410;9.054;2023-03-03T01:59:51;96357.00;;;2.13;100.00
2397;BME280;1209;48.410;9.054;2023-03-03T02:02:17;96349.28;;;2.13;100.00
2397;BME280;1209;48.410;9.054;2023-03-03T02:04:43;96348.09;;;2.17;100.00
2397;BME280;1209;48.410;9.054;2023-03-03T02:07:11;96347.28;;;2.17;100.00
2397;BME280;1209;48.410;9.054;2023-03-03T02:10:06;96344.13;;;2.13;100.00
2397;BME280;1209;48.410;9.054;2023-03-03T02:12:43;96342.63;;;2.11;100.00
2397;BME280;1209;48.410;9.054;2023-03-03T02:15:24;96336.88;;;2.07;100.00
2397;BME280;1209;48.410;9.054;2023-03-03T02:17:59;96343.88;;;2.16;100.00
2397;BME280;1209;48.410;9.054;2023-03-03T02:26:09;96337.38;;;2.01;100.00
2397;BME280;1209;48.410;9.054;2023-03-03T02:28:37;96343.34;;;2.02;100.00
2397;BME280;1209;48.410;9.054;2023-03-03T02:31:07;96336.22;;;1.94;100.00
2397;BME280;1209;48.410;9.054;2023-03-03T02:33:34;96336.22;;;1.94;100.00
2397;BME280;1209;48.410;9.054;2023-03-03T02:36:00;96333.53;;;1.96;100.00
2397;BME280;1209;48.410;9.054;2023-03-03T02:38:43;96327.88;;;2.02;100.00
2397;BME280;1209;48.410;9.054;2023-03-03T02:41:26;96325.91;;;1.94;100.00
2397;BME280;1209;48.410;9.054;2023-03-03T02:46:37;96323.34;;;1.94;100.00
2397;BME280;1209;48.410;9.054;2023-03-03T02:49:04;96326.84;;;1.93;100.00
2397;BME280;1209;48.410;9.054;2023-03-03T02:51:30;96323.69;;;2.01;100.00
2397;BME280;1209;48.410;9.054;2023-03-03T02:53:56;96322.78;;;1.91;100.00
2397;BME280;1209;48.410;9.054;2023-03-03T02:56:21;96317.63;;;1.79;100.00
2397;BME280;1209;48.410;9.054;2023-03-03T02:58:47;96317.63;;;1.79;100.00
2397;BME280;1209;48.410;9.054;2023-03-03T03:01:12;96327.44;;;1.85;100.00
2397;BME280;1209;48.410;9.054;2023-03-03T03:03:37;96318.75;;;1.86;100.00
2397;BME280;1209;48.410;9.054;2023-03-03T03:06:03;96319.00;;;1.83;100.00
2397;BME280;1209;48.410;9.054;2023-03-03T03:08:28;96326.63;;;1.85;100.00
2397;BME280;1209;48.410;9.054;2023-03-03T03:10:53;96318.06;;;1.84;100.00
2397;BME280;1209;48.410;9.054;2023-03-03T03:13:21;96334.69;;;1.80;100.00
2397;BME280;1209;48.410;9.054;2023-03-03T03:15:47;96329.78;;;1.77;100.00
2397;BME280;1209;48.410;9.054;2023-03-03T03:18:13;96339.16;;;1.78;100.00
2397;BME280;1209;48.410;9.054;2023-03-03T03:20:38;96335.50;;;1.81;100.00
2397;BME280;1209;48.410;9.054;2023-03-03T03:23:05;96344.28;;;1.78;100.00
2397;BME280;1209;48.410;9.054;2023-03-03T03:25:31;96337.66;;;1.53;100.00
2397;BME280;1209;48.410;9.054;2023-03-03T03:27:56;96336.69;;;1.66;100.00
2397;BME280;1209;48.410;9.054;2023-03-03T03:30:21;96335.75;;;1.78;100.00
2397;BME280;1209;48.410;9.054;2023-03-03T03:32:47;96344.28;;;1.78;100.00
2397;BME280;1209;48.410;9.054;2023-03-03T03:35:12;96349.19;;;1.81;100.00
2397;BME280;1209;48.410;9.054;2023-03-03T03:37:38;96356.69;;;1.84;100.00
2397;BME280;1209;48.410;9.054;2023-03-03T03:40:04;96350.84;;;1.82;100.00
2397;BME280;1209;48.410;9.054;2023-03-03T03:42:30;96355.03;;;1.83;100.00
2397;BME280;1209;48.410;9.054;2023-03-03T03:44:55;96359.13;;;1.86;100.00
2397;BME280;1209;48.410;9.054;2023-03-03T03:47:20;96356.25;;;1.91;100.00
2397;BME280;1209;48.410;9.054;2023-03-03T03:49:46;96356.81;;;1.94;100.00
2397;BME280;1209;48.410;9.054;2023-03-03T03:52:11;96354.38;;;1.93;100.00
2397;BME280;1209;48.410;9.054;2023-03-03T03:54:36;96349.22;;;1.93;100.00
2397;BME280;1209;48.410;9.054;2023-03-03T03:57:02;96344.75;;;1.95;100.00
2397;BME280;1209;48.410;9.054;2023-03-03T03:59:27;96344.28;;;2.01;100.00
2397;BME280;1209;48.410;9.054;2023-03-03T04:01:53;96346.63;;;1.93;100.00
2397;BME280;1209;48.410;9.054;2023-03-03T04:04:18;96347.47;;;1.93;100.00
2397;BME280;1209;48.410;9.054;2023-03-03T04:06:43;96356.69;;;1.96;100.00
2397;BME280;1209;48.410;9.054;2023-03-03T04:09:09;96358.34;;;1.97;100.00
2397;BME280;1209;48.410;9.054;2023-03-03T04:11:35;96357.63;;;1.95;100.00
2397;BME280;1209;48.410;9.054;2023-03-03T04:14:00;96353.19;;;1.97;100.00
2397;BME280;1209;48.410;9.054;2023-03-03T04:16:25;96356.69;;;1.96;100.00
2397;BME280;1209;48.410;9.054;2023-03-03T04:18:50;96355.41;;;2.01;100.00
2397;BME280;1209;48.410;9.054;2023-03-03T04:21:16;96360.66;;;2.00;100.00
2397;BME280;1209;48.410;9.054;2023-03-03T04:23:41;96363.84;;;1.92;100.00
2397;BME280;1209;48.410;9.054;2023-03-03T04:26:07;96356.56;;;1.97;100.00
2397;BME280;1209;48.410;9.054;2023-03-03T04:28:33;96350.38;;;2.00;100.00
2397;BME280;1209;48.410;9.054;2023-03-03T04:30:58;96359.16;;;1.97;100.00
2397;BME280;1209;48.410;9.054;2023-03-03T04:33:23;96361.38;;;1.91;100.00
2397;BME280;1209;48.410;9.054;2023-03-03T04:35:49;96354.00;;;1.97;100.00
2397;BME280;1209;48.410;9.054;2023-03-03T04:38:15;96343.59;;;1.99;100.00
2397;BME280;1209;48.410;9.054;2023-03-03T04:40:41;96346.28;;;1.97;100.00
2397;BME280;1209;48.410;9.054;2023-03-03T04:43:07;96354.81;;;1.98;100.00
2397;BME280;1209;48.410;9.054;2023-03-03T04:45:32;96346.03;;;2.00;100.00
2397;BME280;1209;48.410;9.054;2023-03-03T04:47:58;96350.59;;;1.97;100.00
2397;BME280;1209;48.410;9.054;2023-03-03T04:50:23;96350.13;;;2.03;100.00
2397;BME280;1209;48.410;9.054;2023-03-03T04:52:48;96355.03;;;2.06;100.00
2397;BME280;1209;48.410;9.054;2023-03-03T04:55:14;96359.25;;;2.07;100.00
2397;BME280;1209;48.410;9.054;2023-03-03T04:57:41;96358.19;;;2.09;100.00
2397;BME280;1209;48.410;9.054;2023-03-03T05:00:07;96369.06;;;2.13;100.00
2397;BME280;1209;48.410;9.054;2023-03-03T05:02:32;96369.06;;;2.13;100.00
2397;BME280;1209;48.410;9.054;2023-03-03T05:04:57;96364.72;;;2.13;100.00
2397;BME280;1209;48.410;9.054;2023-03-03T05:07:23;96367.88;;;2.17;100.00
2397;BME280;1209;48.410;9.054;2023-03-03T05:09:48;96361.59;;;2.10;100.00
2397;BME280;1209;48.410;9.054;2023-03-03T05:12:14;96369.78;;;2.15;100.00
2397;BME280;1209;48.410;9.054;2023-03-03T05:14:39;96364.28;;;2.08;100.00
2397;BME280;1209;48.410;9.054;2023-03-03T05:17:04;96373.53;;;2.00;100.00
2397;BME280;1209;48.410;9.054;2023-03-03T05:19:30;96374.25;;;2.02;100.00
2397;BME280;1209;48.410;9.054;2023-03-03T05:21:56;96376.25;;;1.98;100.00
2397;BME280;1209;48.410;9.054;2023-03-03T05:24:21;96378.47;;;1.92;100.00
2397;BME280;1209;48.410;9.054;2023-03-03T05:26:47;96378.56;;;2.01;100.00
2397;BME280;1209;48.410;9.054;2023-03-03T05:29:13;96386.41;;;2.00;100.00
2397;BME280;1209;48.410;9.054;2023-03-03T05:31:38;96383.59;;;2.14;100.00
2397;BME280;1209;48.410;9.054;2023-03-03T05:34:04;96372.91;;;2.18;100.00
2397;BME280;1209;48.410;9.054;2023-03-03T05:36:29;96374.34;;;2.11;100.00
2397;BME280;1209;48.410;9.054;2023-03-03T05:38:55;96382.66;;;2.04;100.00
2397;BME280;1209;48.410;9.054;2023-03-03T05:41:20;96384.91;;;1.97;100.00
2397;BME280;1209;48.410;9.054;2023-03-03T05:43:46;96387.25;;;2.00;100.00
2397;BME280;1209;48.410;9.054;2023-03-03T05:46:11;96388.88;;;2.01;100.00
2397;BME280;1209;48.410;9.054;2023-03-03T05:48:37;96395.91;;;1.99;100.00
2397;BME280;1209;48.410;9.054;2023-03-03T05:51:03;96396.72;;;2.00;100.00
2397;BME280;1209;48.410;9.054;2023-03-03T05:53:28;96400.56;;;2.05;100.00
2397;BME280;1209;48.410;9.054;2023-03-03T05:55:54;96394.38;;;2.08;100.00
2397;BME280;1209;48.410;9.054;2023-03-03T05:58:19;96403.03;;;2.07;100.00
2397;BME280;1209;48.410;9.054;2023-03-03T06:00:45;96388.41;;;2.07;100.00
2397;BME280;1209;48.410;9.054;2023-03-03T06:03:10;96393.19;;;2.12;100.00
2397;BME280;1209;48.410;9.054;2023-03-03T06:05:35;96404.31;;;2.12;100.00
2397;BME280;1209;48.410;9.054;2023-03-03T06:08:01;96402.88;;;2.19;100.00
2397;BME280;1209;48.410;9.054;2023-03-03T06:10:26;96401.94;;;2.20;100.00
2397;BME280;1209;48.410;9.054;2023-03-03T06:12:52;96402.88;;;2.19;100.00
2397;BME280;1209;48.410;9.054;2023-03-03T06:15:19;96403.38;;;2.13;100.00
2397;BME280;1209;48.410;9.054;2023-03-03T06:17:44;96409.94;;;2.06;100.00
2397;BME280;1209;48.410;9.054;2023-03-03T06:20:10;96410.41;;;2.11;100.00
2397;BME280;1209;48.410;9.054;2023-03-03T06:22:35;96422.34;;;2.12;100.00
2397;BME280;1209;48.410;9.054;2023-03-03T06:25:01;96414.59;;;2.12;100.00
2397;BME280;1209;48.410;9.054;2023-03-03T06:27:26;96414.59;;;2.12;100.00
2397;BME280;1209;48.410;9.054;2023-03-03T06:29:51;96420.00;;;1.98;100.00
2397;BME280;1209;48.410;9.054;2023-03-03T06:32:16;96420.34;;;2.16;100.00
2397;BME280;1209;48.410;9.054;2023-03-03T06:34:42;96424.19;;;2.21;100.00
2397;BME280;1209;48.410;9.054;2023-03-03T06:37:07;96423.63;;;2.07;100.00
2397;BME280;1209;48.410;9.054;2023-03-03T06:39:32;96415.06;;;2.17;100.00
2397;BME280;1209;48.410;9.054;2023-03-03T06:41:58;96421.84;;;2.18;100.00
2397;BME280;1209;48.410;9.054;2023-03-03T06:44:23;96430.41;;;2.19;100.00
2397;BME280;1209;48.410;9.054;2023-03-03T06:46:48;96433.44;;;2.24;100.00
2397;BME280;1209;48.410;9.054;2023-03-03T06:49:14;96436.00;;;2.24;100.00
2397;BME280;1209;48.410;9.054;2023-03-03T06:51:39;96441.06;;;2.26;100.00
2397;BME280;1209;48.410;9.054;2023-03-03T06:54:19;96454.28;;;2.32;100.00
2397;BME280;1209;48.410;9.054;2023-03-03T06:56:45;96445.59;;;2.33;100.00
2397;BME280;1209;48.410;9.054;2023-03-03T06:59:19;96448.53;;;2.29;100.00
2397;BME280;1209;48.410;9.054;2023-03-03T07:01:47;96447.25;;;2.34;100.00
2397;BME280;1209;48.410;9.054;2023-03-03T07:04:29;96459.31;;;2.34;100.00
2397;BME280;1209;48.410;9.054;2023-03-03T07:06:56;96452.06;;;2.39;100.00
2397;BME280;1209;48.410;9.054;2023-03-03T07:09:27;96457.09;;;2.40;100.00
2397;BME280;1209;48.410;9.054;2023-03-03T07:12:23;96459.78;;;2.39;100.00
2397;BME280;1209;48.410;9.054;2023-03-03T07:17:56;96473.47;;;2.50;100.00
2397;BME280;1209;48.410;9.054;2023-03-03T07:20:32;96469.13;;;2.51;100.00
2397;BME280;1209;48.410;9.054;2023-03-03T07:23:00;96472.91;;;2.47;100.00
2397;BME280;1209;48.410;9.054;2023-03-03T07:25:31;96471.38;;;2.44;100.00
2397;BME280;1209;48.410;9.054;2023-03-03T07:28:10;96474.53;;;2.48;100.00
2397;BME280;1209;48.410;9.054;2023-03-03T07:30:41;96465.88;;;2.49;100.00
2397;BME280;1209;48.410;9.054;2023-03-03T07:33:18;96477.44;;;2.55;100.00
2397;BME280;1209;48.410;9.054;2023-03-03T07:35:46;96474.50;;;2.59;100.00
2397;BME280;1209;48.410;9.054;2023-03-03T07:38:22;96477.53;;;2.64;100.00
2397;BME280;1209;48.410;9.054;2023-03-03T07:40:51;96480.00;;;2.66;100.00
2397;BME280;1209;48.410;9.054;2023-03-03T07:43:24;96476.03;;;2.62;100.00
2397;BME280;1209;48.410;9.054;2023-03-03T07:45:55;96480.47;;;2.60;100.00
2397;BME280;1209;48.410;9.054;2023-03-03T07:48:35;96482.56;;;2.66;100.00
2397;BME280;1209;48.410;9.054;2023-03-03T07:51:05;96487.00;;;2.75;100.00
2397;BME280;1209;48.410;9.054;2023-03-03T07:53:35;96487.72;;;2.77;100.00
2397;BME280;1209;48.410;9.054;2023-03-03T07:56:09;96486.31;;;2.84;100.00
2397;BME280;1209;48.410;9.054;2023-03-03T07:58:40;96490.41;;;2.87;100.00
2397;BME280;1209;48.410;9.054;2023-03-03T08:01:28;96499.91;;;2.86;100.00
2397;BME280;1209;48.410;9.054;2023-03-03T08:03:56;96494.25;;;2.92;100.00
2397;BME280;1209;48.410;9.054;2023-03-03T08:11:33;96491.38;;;3.06;100.00
2397;BME280;1209;48.410;9.054;2023-03-03T08:13:58;96502.53;;;3.07;100.00
2397;BME280;1209;48.410;9.054;2023-03-03T08:16:34;96494.28;;;3.13;100.00
2397;BME280;1209;48.410;9.054;2023-03-03T08:19:02;96496.25;;;3.21;100.00
2397;BME280;1209;48.410;9.054;2023-03-03T08:21:29;96499.25;;;3.37;100.00
2397;BME280;1209;48.410;9.054;2023-03-03T08:23:56;96496.56;;;3.38;100.00
2397;BME280;1209;48.410;9.054;2023-03-03T08:26:25;96493.59;;;3.43;100.00
2397;BME280;1209;48.410;9.054;2023-03-03T08:28:52;96487.75;;;3.30;100.00
2397;BME280;1209;48.410;9.054;2023-03-03T08:31:18;96500.19;;;3.57;100.00
2397;BME280;1209;48.410;9.054;2023-03-03T08:33:44;96489.00;;;3.46;100.00
2397;BME280;1209;48.410;9.054;2023-03-03T08:36:10;96492.97;;;3.51;100.00
2397;BME280;1209;48.410;9.054;2023-03-03T08:38:35;96497.00;;;3.64;100.00
2397;BME280;1209;48.410;9.054;2023-03-03T08:41:01;96499.88;;;3.71;100.00
2397;BME280;1209;48.410;9.054;2023-03-03T08:43:27;96493.25;;;3.78;100.00
2397;BME280;1209;48.410;9.054;2023-03-03T08:45:53;96497.44;;;3.69;100.00
2397;BME280;1209;48.410;9.054;2023-03-03T08:48:22;96502.09;;;3.75;100.00
2397;BME280;1209;48.410;9.054;2023-03-03T08:50:48;96498.94;;;3.72;100.00
2397;BME280;1209;48.410;9.054;2023-03-03T08:53:13;96501.72;;;3.80;100.00
2397;BME280;1209;48.410;9.054;2023-03-03T08:55:40;96501.22;;;3.86;100.00
2397;BME280;1209;48.410;9.054;2023-03-03T08:58:05;96506.44;;;3.96;100.00
2397;BME280;1209;48.410;9.054;2023-03-03T09:00:31;96508.94;;;4.07;100.00
2397;BME280;1209;48.410;9.054;2023-03-03T09:02:56;96508.81;;;4.08;100.00
2397;BME280;1209;48.410;9.054;2023-03-03T09:05:22;96509.97;;;4.25;100.00
2397;BME280;1209;48.410;9.054;2023-03-03T09:07:48;96511.50;;;4.28;100.00
2397;BME280;1209;48.410;9.054;2023-03-03T09:10:18;96509.41;;;4.22;100.00
2397;BME280;1209;48.410;9.054;2023-03-03T09:12:46;96507.53;;;4.24;100.00
2397;BME280;1209;48.410;9.054;2023-03-03T09:17:45;96503.72;;;4.58;100.00
2397;BME280;1209;48.410;9.054;2023-03-03T09:20:30;96507.66;;;4.53;100.00
2397;BME280;1209;48.410;9.054;2023-03-03T09:28:31;96505.34;;;4.59;100.00
2397;BME280;1209;48.410;9.054;2023-03-03T09:30:59;96507.59;;;4.73;100.00
2397;BME280;1209;48.410;9.054;2023-03-03T09:33:45;96512.94;;;5.01;100.00
2397;BME280;1209;48.410;9.054;2023-03-03T09:36:23;96508.19;;;5.06;100.00
2397;BME280;1209;48.410;9.054;2023-03-03T09:38:49;96514.19;;;5.16;100.00
2397;BME280;1209;48.410;9.054;2023-03-03T09:44:23;96523.16;;;5.12;100.00
2397;BME280;1209;48.410;9.054;2023-03-03T09:47:06;96520.72;;;5.11;100.00
2397;BME280;1209;48.410;9.054;2023-03-03T09:50:28;96520.75;;;5.30;100.00
2397;BME280;1209;48.410;9.054;2023-03-03T09:55:37;96521.56;;;5.40;100.00
2397;BME280;1209;48.410;9.054;2023-03-03T09:58:33;96528.53;;;5.78;100.00
2397;BME280;1209;48.410;9.054;2023-03-03T10:01:47;96527.53;;;5.89;100.00
2397;BME280;1209;48.410;9.054;2023-03-03T10:18:28;96531.34;;;6.23;100.00
2397;BME280;1209;48.410;9.054;2023-03-03T10:21:09;96527.56;;;6.45;100.00
2397;BME280;1209;48.410;9.054;2023-03-03T10:31:43;96537.78;;;6.00;100.00
2397;BME280;1209;48.410;9.054;2023-03-03T10:37:20;96535.03;;;6.11;100.00
2397;BME280;1209;48.410;9.054;2023-03-03T10:42:47;96537.22;;;6.53;100.00
2397;BME280;1209;48.410;9.054;2023-03-03T10:45:34;96541.28;;;6.65;100.00
2397;BME280;1209;48.410;9.054;2023-03-03T10:48:36;96539.19;;;6.41;100.00
2397;BME280;1209;48.410;9.054;2023-03-03T10:57:03;96536.47;;;6.98;100.00
2397;BME280;1209;48.410;9.054;2023-03-03T11:02:56;96545.97;;;6.52;100.00
2397;BME280;1209;48.410;9.054;2023-03-03T11:08:11;96539.41;;;7.12;100.00
2397;BME280;1209;48.410;9.054;2023-03-03T11:18:34;96535.13;;;7.56;100.00
2397;BME280;1209;48.410;9.054;2023-03-03T11:21:12;96529.56;;;7.51;100.00
2397;BME280;1209;48.410;9.054;2023-03-03T11:23:54;96525.69;;;7.55;100.00
2397;BME280;1209;48.410;9.054;2023-03-03T11:29:06;96520.78;;;7.52;100.00
2397;BME280;1209;48.410;9.054;2023-03-03T11:31:45;96515.88;;;7.85;100.00
2397;BME280;1209;48.410;9.054;2023-03-03T11:34:20;96526.78;;;8.06;100.00
2397;BME280;1209;48.410;9.054;2023-03-03T11:36:55;96518.03;;;8.15;100.00
2397;BME280;1209;48.410;9.054;2023-03-03T11:39:25;96516.59;;;7.95;99.54
2397;BME280;1209;48.410;9.054;2023-03-03T11:44:50;96507.53;;;8.93;96.58
2397;BME280;1209;48.410;9.054;2023-03-03T11:47:26;96506.19;;;8.47;96.64
2397;BME280;1209;48.410;9.054;2023-03-03T11:50:01;96501.09;;;9.05;95.05
2397;BME280;1209;48.410;9.054;2023-03-03T11:52:37;96501.16;;;8.79;93.67
2397;BME280;1209;48.410;9.054;2023-03-03T11:55:08;96495.63;;;8.82;95.75
2397;BME280;1209;48.410;9.054;2023-03-03T11:57:50;96495.72;;;9.07;95.18
2397;BME280;1209;48.410;9.054;2023-03-03T12:00:40;96496.25;;;9.43;92.65
2397;BME280;1209;48.410;9.054;2023-03-03T12:03:24;96494.16;;;8.80;95.21
2397;BME280;1209;48.410;9.054;2023-03-03T12:11:56;96491.50;;;9.22;93.81
2397;BME280;1209;48.410;9.054;2023-03-03T12:14:57;96496.72;;;9.38;91.09
2397;BME280;1209;48.410;9.054;2023-03-03T12:20:48;96494.16;;;9.63;93.47
2397;BME280;1209;48.410;9.054;2023-03-03T12:26:10;96492.97;;;9.33;91.08
2397;BME280;1209;48.410;9.054;2023-03-03T12:28:49;96495.09;;;9.45;92.03
2397;BME280;1209;48.410;9.054;2023-03-03T12:31:36;96492.16;;;9.32;91.87
2397;BME280;1209;48.410;9.054;2023-03-03T12:34:28;96487.59;;;9.18;90.41
2397;BME280;1209;48.410;9.054;2023-03-03T12:37:14;96484.53;;;9.63;90.93
2397;BME280;1209;48.410;9.054;2023-03-03T12:40:08;96482.09;;;9.62;88.41
2397;BME280;1209;48.410;9.054;2023-03-03T12:43:16;96487.94;;;9.39;91.74
2397;BME280;1209;48.410;9.054;2023-03-03T12:48:42;96474.25;;;9.29;92.32
2397;BME280;1209;48.410;9.054;2023-03-03T12:51:26;96472.97;;;9.74;90.44
2397;BME280;1209;48.410;9.054;2023-03-03T12:56:48;96461.84;;;10.21;86.09
2397;BME280;1209;48.410;9.054;2023-03-03T12:59:47;96471.47;;;10.12;85.96
2397;BME280;1209;48.410;9.054;2023-03-03T13:02:29;96465.31;;;9.64;88.48
2397;BME280;1209;48.410;9.054;2023-03-03T13:05:12;96465.94;;;9.83;90.19
2397;BME280;1209;48.410;9.054;2023-03-03T13:07:44;96461.22;;;9.78;90.32
2397;BME280;1209;48.410;9.054;2023-03-03T13:10:20;96460.06;;;9.89;88.07
2397;BME280;1209;48.410;9.054;2023-03-03T13:12:59;96462.22;;;9.93;84.77
2397;BME280;1209;48.410;9.054;2023-03-03T13:15:29;96469.88;;;9.70;89.56
2397;BME280;1209;48.410;9.054;2023-03-03T13:28:02;96458.09;;;10.07;86.13
2397;BME280;1209;48.410;9.054;2023-03-03T13:30:37;96461.88;;;9.72;88.08
2397;BME280;1209;48.410;9.054;2023-03-03T13:35:45;96454.88;;;9.81;87.30
2397;BME280;1209;48.410;9.054;2023-03-03T13:38:19;96458.28;;;9.89;88.05
2397;BME280;1209;48.410;9.054;2023-03-03T13:40:56;96460.72;;;9.99;86.06
2397;BME280;1209;48.410;9.054;2023-03-03T13:43:30;96449.00;;;9.95;83.69
2397;BME280;1209;48.410;9.054;2023-03-03T13:46:04;96445.53;;;10.10;85.94
2397;BME280;1209;48.410;9.054;2023-03-03T13:48:54;96452.31;;;10.36;82.94
2397;BME280;1209;48.410;9.054;2023-03-03T13:51:42;96442.97;;;10.58;81.57
2397;BME280;1209;48.410;9.054;2023-03-03T13:57:32;96453.88;;;9.98;86.97
2397;BME280;1209;48.410;9.054;2023-03-03T14:00:06;96448.03;;;9.96;82.85
2397;BME280;1209;48.410;9.054;2023-03-03T14:05:25;96446.78;;;10.39;79.59
2397;BME280;1209;48.410;9.054;2023-03-03T14:07:57;96435.81;;;10.52;80.20
2397;BME280;1209;48.410;9.054;2023-03-03T14:13:23;96437.41;;;9.89;81.81
2397;BME280;1209;48.410;9.054;2023-03-03T14:18:29;96427.16;;;9.79;84.17
2397;BME280;1209;48.410;9.054;2023-03-03T14:21:16;96433.38;;;9.62;87.99
2397;BME280;1209;48.410;9.054;2023-03-03T14:23:53;96430.09;;;9.76;82.72
2397;BME280;1209;48.410;9.054;2023-03-03T14:26:23;96429.91;;;9.86;85.01
2397;BME280;1209;48.410;9.054;2023-03-03T14:28:49;96432.66;;;9.93;82.53
2397;BME280;1209;48.410;9.054;2023-03-03T14:31:28;96423.66;;;10.20;83.16
2397;BME280;1209;48.410;9.054;2023-03-03T14:36:39;96440.38;;;9.78;85.69
2397;BME280;1209;48.410;9.054;2023-03-03T14:39:29;96428.22;;;10.26;80.61
2397;BME280;1209;48.410;9.054;2023-03-03T14:41:56;96427.00;;;9.81;83.18
2397;BME280;1209;48.410;9.054;2023-03-03T14:44:30;96424.09;;;9.68;85.80
2397;BME280;1209;48.410;9.054;2023-03-03T14:47:20;96428.47;;;9.43;85.34
2397;BME280;1209;48.410;9.054;2023-03-03T14:49:46;96429.97;;;9.54;85.36
2397;BME280;1209;48.410;9.054;2023-03-03T14:54:42;96427.19;;;9.63;83.47
2397;BME280;1209;48.410;9.054;2023-03-03T14:57:14;96430.09;;;9.44;86.33
2397;BME280;1209;48.410;9.054;2023-03-03T14:59:55;96425.72;;;9.69;86.75
2397;BME280;1209;48.410;9.054;2023-03-03T15:02:36;96430.94;;;9.53;86.11
2397;BME280;1209;48.410;9.054;2023-03-03T15:05:26;96427.84;;;9.65;86.33
2397;BME280;1209;48.410;9.054;2023-03-03T15:08:07;96429.97;;;9.62;87.91
2397;BME280;1209;48.410;9.054;2023-03-03T15:10:43;96426.19;;;9.32;88.70
2397;BME280;1209;48.410;9.054;2023-03-03T15:15:50;96426.03;;;9.33;86.84
2397;BME280;1209;48.410;9.054;2023-03-03T15:18:16;96425.38;;;9.23;86.49
2397;BME280;1209;48.410;9.054;2023-03-03T15:28:42;96430.25;;;9.10;90.87
2397;BME280;1209;48.410;9.054;2023-03-03T15:31:21;96433.22;;;9.31;88.89
2397;BME280;1209;48.410;9.054;2023-03-03T15:36:46;96438.19;;;8.84;89.08
2397;BME280;1209;48.410;9.054;2023-03-03T15:39:44;96440.75;;;8.76;91.49
2397;BME280;1209;48.410;9.054;2023-03-03T15:42:17;96445.66;;;8.79;90.60
2397;BME280;1209;48.410;9.054;2023-03-03T15:51:19;96446.78;;;8.68;93.36
2397;BME280;1209;48.410;9.054;2023-03-03T15:56:52;96439.63;;;8.70;93.45
2397;BME280;1209;48.410;9.054;2023-03-03T16:05:02;96448.59;;;8.42;93.79
2397;BME280;1209;48.410;9.054;2023-03-03T16:07:45;96449.91;;;8.38;94.97
2397;BME280;1209;48.410;9.054;2023-03-03T16:10:23;96448.50;;;8.26;95.99
2397;BME280;1209;48.410;9.054;2023-03-03T16:13:40;96446.53;;;8.19;97.30
2397;BME280;1209;48.410;9.054;2023-03-03T16:16:34;96455.59;;;8.07;95.63
2397;BME280;1209;48.410;9.054;2023-03-03T16:27:39;96464.13;;;8.00;98.22
2397;BME280;1209;48.410;9.054;2023-03-03T16:36:08;96460.31;;;7.86;98.25
2397;BME280;1209;48.410;9.054;2023-03-03T16:38:40;96471.38;;;7.88;99.05
2397;BME280;1209;48.410;9.054;2023-03-03T16:44:11;96473.56;;;7.75;100.00
2397;BME280;1209;48.410;9.054;2023-03-03T16:47:15;96464.13;;;7.56;100.00
2397;BME280;1209;48.410;9.054;2023-03-03T16:49:55;96476.91;;;7.49;100.00
2397;BME280;1209;48.410;9.054;2023-03-03T16:55:24;96491.25;;;7.53;100.00
2397;BME280;1209;48.410;9.054;2023-03-03T17:01:04;96497.63;;;7.41;100.00
2397;BME280;1209;48.410;9.054;2023-03-03T17:03:43;96496.59;;;7.34;100.00